createdAt,value
2023-01-23T00:01:31.161Z,30.23
2023-01-23T00:03:59.185Z,27.88
2023-01-23T00:06:28.523Z,24.50
2023-01-23T00:08:56.887Z,21.30
2023-01-23T00:11:26.938Z,23.05
2023-01-23T00:13:54.577Z,25.02
2023-01-23T00:16:23.625Z,41.38
2023-01-23T00:18:52.581Z,30.63
2023-01-23T00:21:22.949Z,27.52
2023-01-23T00:23:53.092Z,26.05
2023-01-23T00:26:26.083Z,24.95
2023-01-23T00:28:54.378Z,25.77
2023-01-23T00:31:27.083Z,23.95
2023-01-23T00:33:57.894Z,27.50
2023-01-23T00:36:28.037Z,25.30
2023-01-23T00:38:56.248Z,22.52
2023-01-23T00:41:23.865Z,24.08
2023-01-23T00:43:52.291Z,21.70
2023-01-23T00:46:23.074Z,22.70
2023-01-23T00:48:51.994Z,20.02
2023-01-23T00:51:19.838Z,25.92
2023-01-23T00:53:47.368Z,29.08
2023-01-23T00:56:14.492Z,41.20
2023-01-23T00:58:44.098Z,23.08
2023-01-23T01:01:13.831Z,24.73
2023-01-23T01:03:41.586Z,24.50
2023-01-23T01:06:10.795Z,24.85
2023-01-23T01:08:38.437Z,24.77
2023-01-23T01:11:05.942Z,27.92
2023-01-23T01:13:33.675Z,29.13
2023-01-23T01:16:02.250Z,18.73
2023-01-23T01:18:30.291Z,26.38
2023-01-23T01:20:57.916Z,27.02
2023-01-23T01:23:25.794Z,19.13
2023-01-23T01:25:54.514Z,25.95
2023-01-23T01:28:22.007Z,21.70
2023-01-23T01:30:49.924Z,22.83
2023-01-23T01:33:17.335Z,28.38
2023-01-23T01:35:44.498Z,24.00
2023-01-23T01:38:11.868Z,24.95
2023-01-23T01:40:38.981Z,17.42
2023-01-23T01:43:17.268Z,24.92
2023-01-23T01:46:17.634Z,22.88
2023-01-23T01:48:53.209Z,25.60
2023-01-23T01:51:28.914Z,21.73
2023-01-23T01:54:10.908Z,20.15
2023-01-23T01:56:46.194Z,17.80
2023-01-23T01:59:14.906Z,18.90
2023-01-23T02:01:45.993Z,18.77
2023-01-23T02:04:13.892Z,20.92
2023-01-23T02:06:41.169Z,32.17
2023-01-23T02:09:23.016Z,19.00
2023-01-23T02:11:50.657Z,28.02
2023-01-23T02:14:20.944Z,41.85
2023-01-23T02:16:52.063Z,28.60
2023-01-23T02:19:38.860Z,22.00
2023-01-23T02:22:38.415Z,19.70
2023-01-23T02:25:09.125Z,19.38
2023-01-23T02:27:36.134Z,19.02
2023-01-23T02:30:05.833Z,19.65
2023-01-23T02:32:33.210Z,18.27
2023-01-23T02:35:08.494Z,18.42
2023-01-23T02:37:38.002Z,23.00
2023-01-23T02:40:07.347Z,18.65
2023-01-23T02:42:40.764Z,27.92
2023-01-23T02:45:09.324Z,13.20
2023-01-23T02:47:36.741Z,15.10
2023-01-23T02:50:04.576Z,13.23
2023-01-23T02:52:34.442Z,19.48
2023-01-23T02:55:02.024Z,16.38
2023-01-23T02:57:29.565Z,23.33
2023-01-23T03:00:15.701Z,24.45
2023-01-23T03:02:52.162Z,19.73
2023-01-23T03:05:19.657Z,22.20
2023-01-23T03:07:46.769Z,39.60
2023-01-23T03:10:14.176Z,23.50
2023-01-23T03:12:45.259Z,18.00
2023-01-23T03:15:14.648Z,14.63
2023-01-23T03:17:41.717Z,14.93
2023-01-23T03:20:09.955Z,18.83
2023-01-23T03:22:37.010Z,20.88
2023-01-23T03:25:05.992Z,16.08
2023-01-23T03:27:35.021Z,17.40
2023-01-23T03:30:15.782Z,21.98
2023-01-23T03:32:44.675Z,24.85
2023-01-23T03:35:23.175Z,25.90
2023-01-23T03:37:54.621Z,18.70
2023-01-23T03:40:43.968Z,17.45
2023-01-23T03:43:14.790Z,23.05
2023-01-23T03:45:47.917Z,39.97
2023-01-23T03:48:15.112Z,44.03
2023-01-23T03:50:44.248Z,26.83
2023-01-23T03:53:11.416Z,23.13
2023-01-23T03:55:39.176Z,33.72
2023-01-23T03:58:06.260Z,29.63
2023-01-23T04:00:34.818Z,42.63
2023-01-23T04:03:06.393Z,24.85
2023-01-23T04:05:34.483Z,17.05
2023-01-23T04:08:02.105Z,22.27
2023-01-23T04:10:29.903Z,17.58
2023-01-23T04:13:04.024Z,21.23
2023-01-23T04:15:34.950Z,16.67
2023-01-23T04:18:05.257Z,17.15
2023-01-23T04:20:33.250Z,21.42
2023-01-23T04:23:00.315Z,47.20
2023-01-23T04:25:29.308Z,39.70
2023-01-23T04:27:56.660Z,25.23
2023-01-23T04:30:24.163Z,16.38
2023-01-23T04:32:51.795Z,16.02
2023-01-23T04:35:20.431Z,29.30
2023-01-23T04:37:48.064Z,15.38
2023-01-23T04:40:18.589Z,44.30
2023-01-23T04:42:58.816Z,20.70
2023-01-23T04:45:33.558Z,29.02
2023-01-23T04:48:36.140Z,17.70
2023-01-23T04:51:03.862Z,16.60
2023-01-23T04:53:31.168Z,16.23
2023-01-23T04:56:02.557Z,18.75
2023-01-23T04:58:30.639Z,19.77
2023-01-23T05:01:06.565Z,16.65
2023-01-23T05:03:35.576Z,23.15
2023-01-23T05:06:02.967Z,29.73
2023-01-23T05:08:30.335Z,124.63
2023-01-23T05:11:10.868Z,103.72
2023-01-23T05:13:40.801Z,59.65
2023-01-23T05:16:10.706Z,26.85
2023-01-23T05:18:58.173Z,21.30
2023-01-23T05:21:26.429Z,50.58
2023-01-23T05:23:58.579Z,39.65
2023-01-23T05:26:26.084Z,21.63
2023-01-23T05:28:55.236Z,23.10
2023-01-23T05:31:22.718Z,27.00
2023-01-23T05:34:09.811Z,17.08
2023-01-23T05:36:40.160Z,28.60
2023-01-23T05:39:07.837Z,25.35
2023-01-23T05:41:35.334Z,22.45
2023-01-23T05:44:34.718Z,42.78
2023-01-23T05:47:06.740Z,33.28
2023-01-23T05:49:36.967Z,30.55
2023-01-23T05:52:04.604Z,24.73
2023-01-23T05:54:32.782Z,23.65
2023-01-23T05:57:00.392Z,28.98
2023-01-23T05:59:46.179Z,47.67
2023-01-23T06:05:18.807Z,27.60
2023-01-23T06:08:05.327Z,25.20
2023-01-23T06:10:32.466Z,31.58
2023-01-23T06:12:59.819Z,36.55
2023-01-23T06:15:28.825Z,34.60
2023-01-23T06:18:00.455Z,35.60
2023-01-23T06:20:27.708Z,45.70
2023-01-23T06:22:55.349Z,29.58
2023-01-23T06:25:25.285Z,32.45
2023-01-23T06:27:55.409Z,26.17
2023-01-23T06:30:25.243Z,66.15
2023-01-23T06:32:52.905Z,39.45
2023-01-23T06:35:26.273Z,24.50
2023-01-23T06:37:54.850Z,19.08
2023-01-23T06:40:23.444Z,17.83
2023-01-23T06:43:21.877Z,26.50
2023-01-23T06:45:50.254Z,35.25
2023-01-23T06:48:19.765Z,25.10
2023-01-23T06:50:49.492Z,38.63
2023-01-23T06:53:18.258Z,21.35
2023-01-23T06:55:47.093Z,40.33
2023-01-23T06:58:15.885Z,24.02
2023-01-23T07:00:44.701Z,38.47
2023-01-23T07:03:27.033Z,28.45
2023-01-23T07:05:54.360Z,32.78
2023-01-23T07:08:22.130Z,25.95
2023-01-23T07:10:50.881Z,24.85
2023-01-23T07:13:18.243Z,20.33
2023-01-23T07:15:46.838Z,27.95
2023-01-23T07:18:14.243Z,23.05
2023-01-23T07:20:44.716Z,18.50
2023-01-23T07:23:12.247Z,26.63
2023-01-23T07:25:39.979Z,32.80
2023-01-23T07:28:07.497Z,22.65
2023-01-23T07:30:34.672Z,18.73
2023-01-23T07:33:02.533Z,18.73
2023-01-23T07:35:29.702Z,30.60
2023-01-23T07:37:57.757Z,24.95
2023-01-23T07:40:25.504Z,24.90
2023-01-23T07:42:53.013Z,23.75
2023-01-23T07:45:20.132Z,24.05
2023-01-23T07:47:53.471Z,40.30
2023-01-23T07:50:20.964Z,31.00
2023-01-23T07:52:48.476Z,22.00
2023-01-23T07:55:15.514Z,20.58
2023-01-23T07:57:42.800Z,42.10
2023-01-23T08:00:10.967Z,35.00
2023-01-23T08:02:41.080Z,26.48
2023-01-23T08:05:08.765Z,24.00
2023-01-23T08:07:36.202Z,21.33
2023-01-23T08:10:06.347Z,38.83
2023-01-23T08:12:34.630Z,29.63
2023-01-23T08:15:01.946Z,15.55
2023-01-23T08:17:29.329Z,17.73
2023-01-23T08:19:56.478Z,17.00
2023-01-23T08:22:23.807Z,17.20
2023-01-23T08:24:51.064Z,27.13
2023-01-23T08:27:19.736Z,25.27
2023-01-23T08:29:47.055Z,19.83
2023-01-23T08:32:14.798Z,24.83
2023-01-23T08:34:42.253Z,25.17
2023-01-23T08:37:10.106Z,18.00
2023-01-23T08:39:37.619Z,16.30
2023-01-23T08:42:05.241Z,23.23
2023-01-23T08:44:34.262Z,45.35
2023-01-23T08:47:03.405Z,35.28
2023-01-23T08:49:31.091Z,33.70
2023-01-23T08:52:00.212Z,32.72
2023-01-23T08:54:27.518Z,58.88
2023-01-23T08:56:54.908Z,33.92
2023-01-23T08:59:22.329Z,70.32
2023-01-23T09:01:49.918Z,57.67
2023-01-23T09:04:19.082Z,56.33
2023-01-23T09:06:47.134Z,45.65
2023-01-23T09:09:14.248Z,47.83
2023-01-23T09:11:41.776Z,30.50
2023-01-23T09:14:09.223Z,24.85
2023-01-23T09:16:37.110Z,32.25
2023-01-23T09:19:04.616Z,37.30
2023-01-23T09:21:32.293Z,30.85
2023-01-23T09:24:27.328Z,31.25
2023-01-23T09:26:58.184Z,72.25
2023-01-23T09:29:25.114Z,25.92
2023-01-23T09:31:52.567Z,71.95
2023-01-23T09:34:21.357Z,38.90
2023-01-23T09:36:49.065Z,37.30
2023-01-23T09:39:17.050Z,48.22
2023-01-23T09:41:46.232Z,61.22
2023-01-23T09:44:35.312Z,24.90
2023-01-23T09:47:21.011Z,21.25
2023-01-23T09:50:03.252Z,26.92
2023-01-23T09:52:46.151Z,25.80
2023-01-23T09:55:44.227Z,39.78
2023-01-23T09:58:50.003Z,18.17
2023-01-23T10:03:44.897Z,23.90
2023-01-23T10:06:25.286Z,16.42
2023-01-23T10:09:13.468Z,19.58
2023-01-23T10:12:12.690Z,21.52
2023-01-23T10:15:03.829Z,16.05
2023-01-23T10:17:47.189Z,22.15
2023-01-23T10:20:33.809Z,47.63
2023-01-23T10:23:25.966Z,30.45
2023-01-23T10:25:53.697Z,30.15
2023-01-23T10:28:38.032Z,27.58
2023-01-23T10:31:38.539Z,28.73
2023-01-23T10:34:28.251Z,21.75
2023-01-23T10:37:15.516Z,23.73
2023-01-23T10:40:00.045Z,26.23
2023-01-23T10:42:30.952Z,22.98
2023-01-23T10:45:00.848Z,20.63
2023-01-23T10:47:43.220Z,17.45
2023-01-23T10:50:11.385Z,21.95
2023-01-23T10:52:46.075Z,23.80
2023-01-23T10:57:49.811Z,24.20
2023-01-23T11:00:17.523Z,16.52
2023-01-23T11:02:45.280Z,18.65
2023-01-23T11:05:50.628Z,22.58
2023-01-23T11:08:28.758Z,67.78
2023-01-23T11:11:16.128Z,25.63
2023-01-23T11:13:45.605Z,27.38
2023-01-23T11:16:19.210Z,15.90
2023-01-23T11:19:11.566Z,55.70
2023-01-23T11:21:50.504Z,71.40
2023-01-23T11:24:38.495Z,87.20
2023-01-23T11:27:30.334Z,60.00
2023-01-23T11:30:33.328Z,31.23
2023-01-23T11:33:23.550Z,44.65
2023-01-23T11:36:04.551Z,37.58
2023-01-23T11:38:52.463Z,29.42
2023-01-23T11:41:32.632Z,29.27
2023-01-23T11:44:07.332Z,57.17
2023-01-23T11:46:58.244Z,33.75
2023-01-23T11:50:02.067Z,52.65
2023-01-23T11:52:36.518Z,41.28
2023-01-23T11:55:24.982Z,46.55
2023-01-23T11:58:21.289Z,22.63
2023-01-23T12:01:21.043Z,28.60
2023-01-23T12:04:04.601Z,27.98
2023-01-23T12:06:42.867Z,50.70
2023-01-23T12:09:12.357Z,31.27
2023-01-23T12:11:50.347Z,47.35
2023-01-23T12:14:24.125Z,34.72
2023-01-23T12:17:00.571Z,30.65
2023-01-23T12:19:45.593Z,29.80
2023-01-23T12:24:59.965Z,18.90
2023-01-23T12:27:40.022Z,18.33
2023-01-23T12:30:27.957Z,18.27
2023-01-23T12:33:23.356Z,19.40
2023-01-23T12:36:28.802Z,10.10
2023-01-23T12:39:14.287Z,10.10
2023-01-23T12:41:52.914Z,15.82
2023-01-23T12:44:30.734Z,18.50
2023-01-23T12:47:12.863Z,36.03
2023-01-23T12:49:54.012Z,20.15
2023-01-23T12:52:32.690Z,20.95
2023-01-23T12:55:23.033Z,33.38
2023-01-23T12:57:59.816Z,35.72
2023-01-23T13:00:46.108Z,32.50
2023-01-23T13:03:47.245Z,28.38
2023-01-23T13:06:55.678Z,21.80
2023-01-23T13:09:31.711Z,47.97
2023-01-23T13:12:24.433Z,99.53
2023-01-23T13:15:14.490Z,32.28
2023-01-23T13:17:49.312Z,35.55
2023-01-23T13:20:47.043Z,66.65
2023-01-23T13:23:29.645Z,50.35
2023-01-23T13:26:15.602Z,69.82
2023-01-23T13:28:48.658Z,79.05
2023-01-23T13:31:34.361Z,45.25
2023-01-23T13:34:14.840Z,45.05
2023-01-23T13:36:46.906Z,40.83
2023-01-23T13:39:17.015Z,45.97
2023-01-23T13:42:18.527Z,55.55
2023-01-23T13:45:16.863Z,80.28
2023-01-23T14:22:56.565Z,98.07
2023-01-23T14:25:23.860Z,48.38
2023-01-23T14:28:03.760Z,41.38
2023-01-23T14:30:31.717Z,37.75
2023-01-23T14:32:59.529Z,42.58
2023-01-23T14:35:30.361Z,59.92
2023-01-23T14:38:05.123Z,42.60
2023-01-23T14:40:43.456Z,35.58
2023-01-23T14:43:23.484Z,95.30
2023-01-23T14:46:00.249Z,49.83
2023-01-23T14:48:28.611Z,37.70
2023-01-23T14:51:08.925Z,80.28
2023-01-23T14:53:40.568Z,51.40
2023-01-23T14:56:11.032Z,32.60
2023-01-23T14:58:39.052Z,44.45
2023-01-23T15:01:06.183Z,36.88
2023-01-23T15:03:44.186Z,45.78
2023-01-23T15:06:15.965Z,26.17
2023-01-23T15:08:46.391Z,30.15
2023-01-23T15:11:14.168Z,37.13
2023-01-23T15:13:43.191Z,31.88
2023-01-23T15:16:38.559Z,25.00
2023-01-23T15:19:20.089Z,25.20
2023-01-23T15:21:47.489Z,31.83
2023-01-23T15:24:14.826Z,33.25
2023-01-23T15:26:43.005Z,29.77
2023-01-23T15:29:10.427Z,31.35
2023-01-23T15:31:40.520Z,52.20
2023-01-23T15:34:30.656Z,181.18
2023-01-23T15:37:11.256Z,25.15
2023-01-23T15:39:49.335Z,25.70
2023-01-23T15:42:19.309Z,27.13
2023-01-23T15:44:47.595Z,24.85
2023-01-23T15:47:15.119Z,20.75
2023-01-23T15:49:42.581Z,24.02
2023-01-23T15:52:23.195Z,22.30
2023-01-23T15:54:53.852Z,20.13
2023-01-23T15:57:21.260Z,18.63
2023-01-23T15:59:48.795Z,29.25
2023-01-23T16:02:30.063Z,31.17
2023-01-23T16:05:00.895Z,51.55
2023-01-23T16:07:35.536Z,28.75
2023-01-23T16:10:24.753Z,21.33
2023-01-23T16:12:54.814Z,32.25
2023-01-23T16:15:25.173Z,23.70
2023-01-23T16:17:52.852Z,128.27
2023-01-23T16:20:27.616Z,30.65
2023-01-23T16:23:14.097Z,75.13
2023-01-23T16:25:45.062Z,32.60
2023-01-23T16:28:20.821Z,26.10
2023-01-23T16:30:48.952Z,42.40
2023-01-23T16:33:16.624Z,35.45
2023-01-23T16:35:46.399Z,39.40
2023-01-23T16:38:28.194Z,41.28
2023-01-23T16:40:59.482Z,109.25
2023-01-23T16:43:26.902Z,51.88
2023-01-23T16:45:56.499Z,37.75
2023-01-23T16:48:27.743Z,45.20
2023-01-23T16:51:03.373Z,83.97
2023-01-23T16:53:34.713Z,74.78
2023-01-23T16:56:04.306Z,52.85
2023-01-23T16:58:39.566Z,144.60
2023-01-23T17:01:21.787Z,110.68
2023-01-23T17:03:56.405Z,64.40
2023-01-23T17:06:26.685Z,79.75
2023-01-23T17:08:55.674Z,86.57
2023-01-23T17:11:28.287Z,112.78
2023-01-23T17:14:01.827Z,88.32
2023-01-23T17:16:30.251Z,151.20
2023-01-23T17:19:00.967Z,54.47
2023-01-23T17:21:34.756Z,143.07
2023-01-23T17:24:02.395Z,56.58
2023-01-23T17:26:29.767Z,109.57
2023-01-23T17:28:59.222Z,90.68
2023-01-23T17:31:29.039Z,32.05
2023-01-23T17:33:56.792Z,147.30
2023-01-23T17:36:44.476Z,130.77
2023-01-23T17:39:15.972Z,111.97
2023-01-23T17:41:43.779Z,138.63
2023-01-23T17:44:10.924Z,101.60
2023-01-23T17:46:39.648Z,99.25
2023-01-23T17:49:29.251Z,57.90
2023-01-23T17:52:01.389Z,113.88
2023-01-23T17:54:29.071Z,89.85
2023-01-23T17:56:56.402Z,46.95
2023-01-23T17:59:23.445Z,131.73
2023-01-23T18:01:51.102Z,108.97
2023-01-23T18:04:26.678Z,64.05
2023-01-23T18:06:54.066Z,94.63
2023-01-23T18:09:21.621Z,62.42
2023-01-23T18:11:54.418Z,35.15
2023-01-23T18:14:57.713Z,68.30
2023-01-23T18:17:37.533Z,157.40
2023-01-23T18:20:20.325Z,331.25
2023-01-23T18:22:50.739Z,330.63
2023-01-23T18:25:19.532Z,471.20
2023-01-23T18:28:00.578Z,565.22
2023-01-23T18:31:03.705Z,221.35
2023-01-23T18:33:49.618Z,39.03
2023-01-23T18:36:30.943Z,88.10
2023-01-23T18:39:32.071Z,102.78
2023-01-23T18:42:05.106Z,43.95
2023-01-23T18:44:34.824Z,50.75
2023-01-23T18:47:05.695Z,49.17
2023-01-23T18:49:33.648Z,37.15
2023-01-23T18:52:13.676Z,41.83
2023-01-23T18:54:51.905Z,30.95
2023-01-23T18:57:50.380Z,64.75
2023-01-23T19:00:24.114Z,53.90
2023-01-23T19:02:55.324Z,64.70
2023-01-23T19:05:32.907Z,30.65
2023-01-23T19:08:02.159Z,33.65
2023-01-23T19:10:46.715Z,43.97
2023-01-23T19:13:40.575Z,41.58
2023-01-23T19:16:09.132Z,98.15
2023-01-23T19:18:45.724Z,37.17
2023-01-23T19:21:26.613Z,35.38
2023-01-23T19:23:54.163Z,43.55
2023-01-23T19:26:23.196Z,35.90
2023-01-23T19:28:50.782Z,29.00
2023-01-23T19:31:30.100Z,49.40
2023-01-23T19:33:58.845Z,46.15
2023-01-23T19:36:27.344Z,32.92
2023-01-23T19:39:01.685Z,44.15
2023-01-23T19:41:34.464Z,56.58
2023-01-23T19:44:03.020Z,58.28
2023-01-23T19:46:33.612Z,67.78
2023-01-23T19:49:03.683Z,31.13
2023-01-23T19:51:32.724Z,45.92
2023-01-23T19:54:00.788Z,36.88
2023-01-23T19:56:30.279Z,52.13
2023-01-23T19:58:57.430Z,33.78
2023-01-23T20:01:47.960Z,137.98
2023-01-23T20:04:18.193Z,82.05
2023-01-23T20:07:16.324Z,41.35
2023-01-23T20:09:44.251Z,73.60
2023-01-23T20:12:13.249Z,61.17
2023-01-23T20:14:40.284Z,74.90
2023-01-23T20:17:07.752Z,54.75
2023-01-23T20:19:34.871Z,53.85
2023-01-23T20:22:02.351Z,62.72
2023-01-23T20:24:29.415Z,49.33
2023-01-23T20:26:56.794Z,103.40
2023-01-23T20:29:23.952Z,88.00
2023-01-23T20:31:54.486Z,101.03
2023-01-23T20:34:22.041Z,69.75
2023-01-23T20:36:49.354Z,43.60
2023-01-23T20:39:16.395Z,40.33
2023-01-23T20:41:43.797Z,62.33
2023-01-23T20:44:12.621Z,83.18
2023-01-23T20:46:39.894Z,142.45
2023-01-23T20:49:07.066Z,124.55
2023-01-23T20:51:34.558Z,88.22
2023-01-23T20:54:01.668Z,112.53
2023-01-23T20:56:29.149Z,254.18
2023-01-23T20:59:15.640Z,300.00
2023-01-23T21:02:02.068Z,312.63
2023-01-23T21:04:31.846Z,210.43
2023-01-23T21:07:00.206Z,287.60
2023-01-23T21:09:27.732Z,310.80
2023-01-23T21:11:55.512Z,87.32
2023-01-23T21:14:23.404Z,197.07
2023-01-23T21:16:50.709Z,99.95
2023-01-23T21:19:17.792Z,88.75
2023-01-23T21:21:45.359Z,58.53
2023-01-23T21:24:12.987Z,102.55
2023-01-23T21:26:40.991Z,111.15
2023-01-23T21:29:08.673Z,192.60
2023-01-23T21:31:41.596Z,62.30
2023-01-23T21:34:12.233Z,52.58
2023-01-23T21:36:41.772Z,60.65
2023-01-23T21:39:11.721Z,77.75
2023-01-23T21:41:39.170Z,83.65
2023-01-23T21:44:06.595Z,94.82
2023-01-23T21:46:38.073Z,47.28
2023-01-23T21:49:05.169Z,62.35
2023-01-23T21:51:32.686Z,48.38
2023-01-23T21:53:59.789Z,180.75
2023-01-23T21:56:27.512Z,102.10
2023-01-23T21:58:55.475Z,120.13
2023-01-23T22:01:35.694Z,94.22
2023-01-23T22:04:09.216Z,146.95
2023-01-23T22:06:39.069Z,114.85
2023-01-23T22:09:07.190Z,111.38
2023-01-23T22:11:34.864Z,111.82
2023-01-23T22:14:02.158Z,66.90
2023-01-23T22:16:46.916Z,53.13
2023-01-23T22:19:16.101Z,87.40
2023-01-23T22:21:44.319Z,63.58
2023-01-23T22:24:11.390Z,42.15
2023-01-23T22:26:38.787Z,205.43
2023-01-23T22:29:05.777Z,76.30
2023-01-23T22:31:33.163Z,48.20
2023-01-23T22:34:00.223Z,49.00
2023-01-23T22:36:27.575Z,299.42
2023-01-23T22:38:55.600Z,66.60
2023-01-23T22:41:23.887Z,86.13
2023-01-23T22:43:55.405Z,62.88
2023-01-23T22:46:25.236Z,129.80
2023-01-23T22:48:52.324Z,51.20
2023-01-23T22:51:25.441Z,48.35
2023-01-23T22:53:54.075Z,51.20
2023-01-23T22:56:21.755Z,41.90
2023-01-23T22:58:50.163Z,38.25
2023-01-23T23:01:18.710Z,41.75
2023-01-23T23:03:46.087Z,41.35
2023-01-23T23:06:15.783Z,73.90
2023-01-23T23:08:47.125Z,43.63
2023-01-23T23:11:17.987Z,43.85
2023-01-23T23:13:45.838Z,43.17
2023-01-23T23:16:20.866Z,73.20
2023-01-23T23:18:50.091Z,83.22
2023-01-23T23:21:20.311Z,63.10
2023-01-23T23:23:47.819Z,38.83
2023-01-23T23:26:15.982Z,37.63
2023-01-23T23:28:43.246Z,35.65
2023-01-23T23:31:11.359Z,40.50
2023-01-23T23:33:38.729Z,41.78
2023-01-23T23:36:06.861Z,38.33
2023-01-23T23:38:35.003Z,42.72
2023-01-23T23:41:07.014Z,43.88
2023-01-23T23:43:34.599Z,40.90
2023-01-23T23:46:05.678Z,38.10
2023-01-23T23:48:34.846Z,49.20
2023-01-23T23:51:07.876Z,51.45
2023-01-23T23:53:36.283Z,44.53
2023-01-23T23:56:04.722Z,43.55
2023-01-23T23:58:32.635Z,41.20
